Time;durP1;ratioP1;P1;durP2;ratioP2;P2;SDS_P1;SDS_P2;PMS_P1;PMS_P2;Temp;Humidity;BMP_temperature;BMP_pressure;BME280_temperature;BME280_humidity;BME280_pressure;Samples;Min_cycle;Max_cycle;Signal;HPM_P1;HPM_P2
2022/10/17 00:02:09;;;;;;;16.17;6.43;;;;;;;10.66;100.00;96961.94;5013999;28;20438;-81
2022/10/17 00:04:35;;;;;;;10.50;6.97;;;;;;;10.08;100.00;96870.59;4986939;28;20428;-81
2022/10/17 00:07:02;;;;;;;12.37;5.97;;;;;;;10.57;100.00;96940.03;4996556;28;20871;-81
2022/10/17 00:09:29;;;;;;;6.27;5.77;;;;;;;10.70;100.00;96962.13;5012539;28;20478;-81
2022/10/17 00:11:55;;;;;;;6.57;6.03;;;;;;;10.61;100.00;96951.53;4999125;28;20478;-82
2022/10/17 00:14:22;;;;;;;10.50;6.80;;;;;;;10.51;100.00;96953.69;5022200;28;20459;-82
2022/10/17 00:16:49;;;;;;;7.33;6.00;;;;;;;10.32;100.00;96922.28;4996731;28;20443;-82
2022/10/17 00:19:15;;;;;;;10.93;6.20;;;;;;;10.14;100.00;96915.34;5012500;28;20455;-81
2022/10/17 00:21:42;;;;;;;9.47;7.00;;;;;;;10.44;100.00;96959.44;5012405;28;20450;-81
2022/10/17 00:24:09;;;;;;;8.90;6.93;;;;;;;10.50;100.00;96970.66;5012420;28;20416;-81
2022/10/17 00:26:35;;;;;;;15.83;8.20;;;;;;;10.45;100.00;96974.22;5013703;28;20437;-81
2022/10/17 00:29:02;;;;;;;9.50;5.37;;;;;;;10.18;100.00;96943.50;5028292;28;20512;-80
2022/10/17 00:31:29;;;;;;;9.17;5.70;;;;;;;10.22;100.00;96973.53;4991563;28;20526;-81
2022/10/17 00:33:56;;;;;;;13.57;5.30;;;;;;;10.43;100.00;96989.63;4995529;28;20471;-80
2022/10/17 00:36:25;;;;;;;16.47;6.37;;;;;;;10.52;100.00;97002.84;5013623;28;20435;-81
2022/10/17 00:38:57;;;;;;;10.70;6.03;;;;;;;10.45;100.00;97007.81;5012932;28;20505;-80
2022/10/17 00:41:28;;;;;;;8.37;6.37;;;;;;;10.20;100.00;96975.69;4995769;28;20447;-80
2022/10/17 00:44:01;;;;;;;8.40;6.00;;;;;;;10.45;100.00;97011.22;5013112;28;20452;-80
2022/10/17 00:46:34;;;;;;;6.57;5.97;;;;;;;10.35;100.00;96990.38;4983668;28;20482;-81
2022/10/17 00:49:07;;;;;;;8.03;4.70;;;;;;;10.39;100.00;97014.31;5010724;28;20468;-80
2022/10/17 00:51:41;;;;;;;6.77;5.30;;;;;;;10.40;100.00;97016.66;5023264;28;20450;-80
2022/10/17 00:54:10;;;;;;;5.60;5.10;;;;;;;10.23;100.00;96988.31;5015488;28;20464;-80
2022/10/17 00:56:39;;;;;;;15.63;5.77;;;;;;;9.98;100.00;96963.34;5020947;28;20439;-81
2022/10/17 00:59:11;;;;;;;7.70;4.23;;;;;;;10.26;100.00;97011.47;4991472;28;20458;-81
2022/10/17 01:01:45;;;;;;;12.73;4.97;;;;;;;10.29;100.00;97018.03;5029080;28;20462;-81
2022/10/17 01:04:12;;;;;;;8.23;4.70;;;;;;;9.90;100.00;96971.25;5014622;28;20431;-81
2022/10/17 01:06:39;;;;;;;8.93;4.90;;;;;;;9.87;100.00;96975.25;5014503;28;20427;-80
2022/10/17 01:09:05;;;;;;;10.63;5.20;;;;;;;9.96;100.00;96976.09;5011197;28;20468;-81
2022/10/17 01:11:55;;;;;;;6.20;3.83;;;;;;;9.95;100.00;96992.25;5016621;28;20431;-80
2022/10/17 01:14:36;;;;;;;5.93;4.40;;;;;;;9.96;100.00;96993.78;5014274;28;20497;-80
2022/10/17 01:17:10;;;;;;;11.60;3.97;;;;;;;9.98;100.00;96988.97;5033192;28;20434;-80
2022/10/17 01:20:06;;;;;;;17.87;5.37;;;;;;;10.16;100.00;97018.91;5028161;28;20474;-81
2022/10/17 01:23:03;;;;;;;7.70;4.70;;;;;;;10.12;100.00;97024.00;5015113;28;20455;-81
2022/10/17 01:25:51;;;;;;;5.40;3.93;;;;;;;10.10;100.00;97022.75;4988037;28;20507;-80
2022/10/17 01:28:36;;;;;;;9.00;4.10;;;;;;;10.02;100.00;97022.44;4999210;28;20432;-81
2022/10/17 01:31:15;;;;;;;4.93;4.43;;;;;;;9.97;100.00;97025.19;5020284;28;20527;-81
2022/10/17 01:33:44;;;;;;;4.80;4.40;;;;;;;9.97;100.00;97017.25;5014934;28;20451;-81
2022/10/17 01:36:20;;;;;;;5.03;4.50;;;;;;;9.90;100.00;97019.56;5014394;28;20435;-80
2022/10/17 01:38:57;;;;;;;5.50;3.87;;;;;;;9.95;100.00;97023.94;5014397;28;20485;-80
2022/10/17 01:41:41;;;;;;;4.70;4.20;;;;;;;9.73;100.00;97003.63;4998284;28;20485;-80
2022/10/17 01:44:17;;;;;;;6.37;4.60;;;;;;;9.82;100.00;97003.69;4998318;28;20443;-81
2022/10/17 01:46:49;;;;;;;8.93;4.83;;;;;;;9.72;100.00;96997.56;4998004;28;20815;-81
2022/10/17 01:49:20;;;;;;;6.80;3.90;;;;;;;9.83;100.00;97021.09;5014167;28;20479;-80
2022/10/17 01:51:53;;;;;;;6.43;4.10;;;;;;;9.62;100.00;96992.56;5014306;28;20448;-81
2022/10/17 01:54:35;;;;;;;8.37;4.07;;;;;;;9.79;100.00;97007.72;5000978;28;20495;-80
2022/10/17 01:57:07;;;;;;;6.63;4.40;;;;;;;9.51;100.00;96977.28;5030996;28;20462;-80
2022/10/17 01:59:39;;;;;;;14.20;4.83;;;;;;;9.66;100.00;97011.22;5014428;28;20558;-81
2022/10/17 02:02:08;;;;;;;8.70;5.30;;;;;;;9.24;100.00;96973.72;4998989;28;20438;-81
2022/10/17 02:04:36;;;;;;;6.57;4.30;;;;;;;9.23;100.00;96960.84;5020185;28;20955;-81
2022/10/17 02:07:11;;;;;;;8.17;4.30;;;;;;;9.58;100.00;97001.38;5017066;28;20518;-80
2022/10/17 02:09:39;;;;;;;15.50;4.37;;;;;;;9.54;100.00;96998.56;5017852;28;20462;-80
2022/10/17 02:12:15;;;;;;;9.93;4.77;;;;;;;9.56;100.00;96993.75;5021561;28;20828;-80
2022/10/17 02:14:54;;;;;;;21.47;6.60;;;;;;;9.52;100.00;97003.38;5024724;28;20467;-80
2022/10/17 02:17:43;;;;;;;8.50;5.50;;;;;;;9.30;100.00;96967.22;5034215;28;20439;-80
2022/10/17 02:20:21;;;;;;;12.27;5.93;;;;;;;9.30;100.00;96961.94;5017500;28;20470;-80
2022/10/17 02:23:06;;;;;;;17.80;6.10;;;;;;;9.51;100.00;96985.97;5001723;28;20970;-80
2022/10/17 02:25:40;;;;;;;35.00;6.70;;;;;;;9.35;100.00;96988.22;5007841;28;20451;-80
2022/10/17 02:28:15;;;;;;;12.20;5.80;;;;;;;9.42;100.00;96983.28;5001871;28;20440;-81
2022/10/17 02:30:50;;;;;;;8.27;4.73;;;;;;;9.33;100.00;96979.81;5026513;28;20890;-80
2022/10/17 02:33:24;;;;;;;9.80;4.43;;;;;;;9.25;100.00;96948.88;5011953;28;20526;-80
2022/10/17 02:36:02;;;;;;;8.53;4.93;;;;;;;9.03;100.00;96925.94;5011954;28;20833;-80
2022/10/17 02:38:30;;;;;;;7.60;5.53;;;;;;;9.14;100.00;96932.53;5017472;28;20434;-80
2022/10/17 02:40:57;;;;;;;4.50;4.07;;;;;;;9.21;100.00;96941.84;5021849;28;20518;-80
2022/10/17 02:43:24;;;;;;;6.67;4.70;;;;;;;9.05;100.00;96925.63;5017808;28;20439;-80
2022/10/17 02:45:51;;;;;;;18.83;5.70;;;;;;;9.25;100.00;96961.31;5004848;28;20445;-80
2022/10/17 02:48:29;;;;;;;9.17;4.37;;;;;;;9.27;100.00;96993.44;5017400;28;20452;-80
2022/10/17 02:51:08;;;;;;;9.97;4.50;;;;;;;9.26;100.00;96990.03;5020369;28;20446;-80
2022/10/17 02:53:47;;;;;;;5.33;4.17;;;;;;;8.89;100.00;96927.84;5007790;28;20912;-79
2022/10/17 02:56:20;;;;;;;8.00;4.40;;;;;;;7.99;100.00;96801.28;5017148;28;20498;-80
2022/10/17 02:58:51;;;;;;;14.63;4.80;;;;;;;9.31;100.00;96994.38;5017194;28;20459;-80
2022/10/17 03:01:18;;;;;;;7.27;4.60;;;;;;;8.97;100.00;96961.44;5001028;28;20482;-80
2022/10/17 03:03:45;;;;;;;8.17;4.87;;;;;;;8.99;100.00;96980.38;5000820;28;20443;-80
2022/10/17 03:06:12;;;;;;;7.73;5.10;;;;;;;8.76;100.00;96976.94;5017097;28;20439;-80
2022/10/17 03:08:38;;;;;;;8.67;3.90;;;;;;;8.56;100.00;96951.03;5017881;28;20455;-80
2022/10/17 03:11:05;;;;;;;9.93;5.60;;;;;;;8.33;100.00;96929.09;5017083;28;20435;-80
2022/10/17 03:13:32;;;;;;;13.70;5.60;;;;;;;8.77;100.00;96967.94;5013603;28;20448;-80
2022/10/17 03:16:05;;;;;;;9.70;5.17;;;;;;;8.19;100.00;96875.66;5008460;28;20816;-80
2022/10/17 03:18:31;;;;;;;10.73;4.53;;;;;;;8.74;100.00;96973.81;5016452;28;20447;-80
2022/10/17 03:21:00;;;;;;;13.40;6.23;;;;;;;8.54;100.00;96939.97;5017987;28;20985;-80
2022/10/17 03:23:27;;;;;;;18.00;8.53;;;;;;;8.86;100.00;96989.88;5011242;28;20466;-80
2022/10/17 03:25:54;;;;;;;12.33;6.90;;;;;;;8.67;100.00;96952.34;5008819;28;20428;-79
2022/10/17 03:28:21;;;;;;;10.33;6.90;;;;;;;8.86;100.00;96981.19;5026471;28;20443;-80
2022/10/17 03:30:47;;;;;;;6.93;6.20;;;;;;;8.67;100.00;96970.78;5002449;28;20459;-80
2022/10/17 03:33:14;;;;;;;16.17;5.67;;;;;;;8.52;100.00;96958.72;5018368;28;21024;-80
2022/10/17 03:35:41;;;;;;;11.60;5.20;;;;;;;8.49;100.00;96950.66;5024677;28;20471;-80
2022/10/17 03:38:08;;;;;;;16.53;5.50;;;;;;;8.10;100.00;96909.03;5017516;28;20450;-80
2022/10/17 03:40:35;;;;;;;9.67;4.40;;;;;;;8.61;100.00;96995.72;5017242;28;20495;-80
2022/10/17 03:43:02;;;;;;;4.73;4.30;;;;;;;8.63;100.00;97001.47;5020852;28;20475;-80
2022/10/17 03:45:29;;;;;;;9.73;5.63;;;;;;;8.43;100.00;96968.44;5023443;28;20442;-81
2022/10/17 03:47:57;;;;;;;8.67;5.83;;;;;;;8.50;100.00;96976.69;5000348;28;20443;-80
2022/10/17 03:50:24;;;;;;;5.20;4.10;;;;;;;8.49;100.00;96979.63;5000475;28;20983;-80
2022/10/17 03:52:51;;;;;;;8.17;4.83;;;;;;;8.79;100.00;97026.41;5006309;28;20446;-80
2022/10/17 03:55:18;;;;;;;9.27;4.97;;;;;;;8.68;100.00;97019.84;4999884;28;20463;-80
2022/10/17 03:57:45;;;;;;;6.17;5.53;;;;;;;8.55;100.00;97007.47;5015651;28;20451;-80
2022/10/17 04:00:13;;;;;;;12.07;4.73;;;;;;;8.49;100.00;97008.63;4999552;28;20463;-80
2022/10/17 04:02:40;;;;;;;10.33;5.50;;;;;;;8.61;100.00;97031.84;5017791;28;20439;-80
2022/10/17 04:05:11;;;;;;;5.57;5.00;;;;;;;8.32;100.00;96997.88;5016498;28;20446;-80
2022/10/17 04:07:38;;;;;;;5.40;4.00;;;;;;;8.65;100.00;97045.97;4999839;28;20447;-80
2022/10/17 04:10:06;;;;;;;5.23;4.73;;;;;;;8.36;100.00;97004.94;4997384;28;20482;-80
2022/10/17 04:12:32;;;;;;;7.13;4.63;;;;;;;8.52;100.00;97044.94;4999510;28;20454;-80
2022/10/17 04:14:59;;;;;;;11.63;4.47;;;;;;;8.46;100.00;97035.56;4985826;28;20472;-80
2022/10/17 04:17:28;;;;;;;5.83;5.33;;;;;;;7.98;100.00;96967.47;5026324;28;20485;-80
2022/10/17 04:20:00;;;;;;;7.83;4.20;;;;;;;7.92;100.00;96956.25;5015226;28;20970;-80
2022/10/17 04:22:27;;;;;;;9.80;5.13;;;;;;;8.36;100.00;97033.13;5031642;28;20455;-80
2022/10/17 04:24:54;;;;;;;10.70;5.33;;;;;;;8.33;100.00;97047.66;5016738;28;20442;-80
2022/10/17 04:27:29;;;;;;;4.93;3.93;;;;;;;8.49;100.00;97056.84;5015126;28;20427;-80
2022/10/17 04:29:56;;;;;;;8.63;5.23;;;;;;;8.30;100.00;97056.94;4998075;28;20529;-80
2022/10/17 04:32:24;;;;;;;10.13;4.80;;;;;;;8.10;100.00;97004.63;5003771;28;20444;-80
2022/10/17 04:35:14;;;;;;;5.93;3.73;;;;;;;8.25;100.00;97041.19;5002425;28;20470;-80
2022/10/17 04:37:46;;;;;;;4.83;4.43;;;;;;;8.32;100.00;97050.59;4999628;28;20470;-80
2022/10/17 04:40:16;;;;;;;4.97;4.27;;;;;;;7.83;100.00;96986.19;5016056;28;20485;-81
2022/10/17 04:42:43;;;;;;;5.77;4.37;;;;;;;7.76;100.00;96955.00;4998887;28;20958;-80
2022/10/17 04:45:13;;;;;;;5.10;4.43;;;;;;;8.34;100.00;97048.44;5014900;28;20439;-81
2022/10/17 04:47:40;;;;;;;4.67;3.20;;;;;;;8.35;100.00;97052.66;5019159;28;20467;-80
2022/10/17 04:50:08;;;;;;;5.67;3.70;;;;;;;7.76;100.00;96976.06;5024090;28;20447;-81
2022/10/17 04:52:37;;;;;;;4.70;4.30;;;;;;;7.94;100.00;97009.41;5014342;28;20999;-80
2022/10/17 04:55:06;;;;;;;6.53;4.50;;;;;;;8.10;100.00;97038.84;4999053;28;20464;-81
2022/10/17 04:57:34;;;;;;;6.80;4.20;;;;;;;8.04;100.00;97061.09;5015189;28;20447;-81
2022/10/17 05:00:14;;;;;;;3.87;3.47;;;;;;;8.01;100.00;97032.69;5000431;28;20982;-80
2022/10/17 05:03:00;;;;;;;5.00;3.67;;;;;;;7.77;100.00;97006.56;5003837;28;20439;-81
2022/10/17 05:05:28;;;;;;;7.17;3.70;;;;;;;7.95;100.00;97025.97;5031267;28;20512;-80
2022/10/17 05:07:55;;;;;;;13.70;9.30;;;;;;;7.85;100.00;97026.16;5040705;28;20766;-80
2022/10/17 05:10:25;;;;;;;10.00;7.30;;;;;;;7.81;100.00;97019.91;5016380;28;20478;-80
2022/10/17 05:12:53;;;;;;;9.93;7.10;;;;;;;8.10;100.00;97048.63;5017522;28;20451;-80
2022/10/17 05:15:22;;;;;;;5.70;4.77;;;;;;;8.08;100.00;97069.19;5004535;28;20455;-80
2022/10/17 05:17:54;;;;;;;6.93;4.07;;;;;;;7.96;100.00;97054.66;5023944;28;20435;-80
2022/10/17 05:20:21;;;;;;;4.63;3.03;;;;;;;7.97;100.00;97042.25;5029655;28;20467;-80
2022/10/17 05:22:48;;;;;;;4.13;3.73;;;;;;;8.05;100.00;97056.63;5015737;28;20906;-81
2022/10/17 05:25:16;;;;;;;4.03;3.27;;;;;;;7.79;100.00;97041.28;4986525;28;20553;-81
2022/10/17 05:27:43;;;;;;;5.30;3.40;;;;;;;7.56;100.00;97032.44;5016292;28;20424;-80
2022/10/17 05:30:10;;;;;;;4.13;3.00;;;;;;;7.57;100.00;97027.97;5013963;28;20509;-81
2022/10/17 05:32:38;;;;;;;5.63;3.93;;;;;;;7.66;100.00;97028.88;4997450;28;21018;-80
2022/10/17 05:35:06;;;;;;;5.80;3.17;;;;;;;7.71;100.00;97050.59;4996822;28;20449;-80
2022/10/17 05:37:34;;;;;;;5.07;2.60;;;;;;;7.56;100.00;97021.91;4999251;28;20486;-80
2022/10/17 05:40:02;;;;;;;3.97;3.10;;;;;;;7.54;100.00;97010.13;5001087;28;20535;-80
2022/10/17 05:42:29;;;;;;;3.93;3.50;;;;;;;7.53;100.00;97011.97;4987194;28;20455;-80
2022/10/17 05:44:57;;;;;;;7.10;3.57;;;;;;;7.75;100.00;97036.88;5028763;28;20439;-80
2022/10/17 05:47:24;;;;;;;4.60;4.20;;;;;;;7.88;100.00;97063.25;5015625;28;20942;-80
2022/10/17 05:49:51;;;;;;;4.70;3.73;;;;;;;7.77;100.00;97068.97;5015648;28;20971;-80
2022/10/17 05:52:24;;;;;;;5.30;4.80;;;;;;;7.82;100.00;97067.00;4987891;28;21007;-80
2022/10/17 05:55:09;;;;;;;5.07;3.90;;;;;;;7.73;100.00;97079.25;4994845;28;20440;-80
2022/10/17 05:57:35;;;;;;;7.00;4.30;;;;;;;6.64;100.00;96914.00;5030779;28;20435;-80
2022/10/17 06:00:06;;;;;;;5.17;3.40;;;;;;;7.77;100.00;97095.28;5002505;28;20467;-80
2022/10/17 06:02:44;;;;;;;16.20;4.43;;;;;;;7.65;100.00;97067.56;4985761;28;20434;-80
2022/10/17 06:05:13;;;;;;;3.40;3.00;;;;;;;7.77;100.00;97090.03;5000622;28;20454;-79
2022/10/17 06:07:40;;;;;;;4.70;3.47;;;;;;;7.86;100.00;97109.31;5016711;28;20555;-79
2022/10/17 06:10:08;;;;;;;9.07;3.43;;;;;;;7.61;100.00;97063.97;5016866;28;20479;-79
2022/10/17 06:12:34;;;;;;;13.57;4.13;;;;;;;7.93;100.00;97105.25;5028006;28;20974;-79
2022/10/17 06:15:01;;;;;;;4.53;4.17;;;;;;;7.97;100.00;97110.72;5020614;28;20443;-79
2022/10/17 06:17:29;;;;;;;3.57;3.27;;;;;;;7.41;100.00;97059.00;5016649;28;20451;-79
2022/10/17 06:19:56;;;;;;;4.63;3.70;;;;;;;7.46;100.00;97045.75;5017456;28;20474;-80
2022/10/17 06:22:23;;;;;;;5.20;3.47;;;;;;;7.78;100.00;97107.38;5000298;28;20451;-79
2022/10/17 06:24:51;;;;;;;4.40;3.20;;;;;;;8.01;100.00;97119.59;5016823;28;20439;-79
2022/10/17 06:27:19;;;;;;;6.10;4.23;;;;;;;7.80;100.00;97086.81;5016540;28;20439;-79
2022/10/17 06:29:46;;;;;;;7.33;4.27;;;;;;;7.77;100.00;97069.75;5016913;28;20486;-79
2022/10/17 06:32:13;;;;;;;8.53;4.10;;;;;;;8.09;100.00;97097.09;5017921;28;20495;-79
2022/10/17 06:34:44;;;;;;;10.23;5.47;;;;;;;8.04;100.00;97097.97;5018212;28;20505;-79
2022/10/17 06:37:10;;;;;;;7.43;5.23;;;;;;;8.15;100.00;97099.38;5011309;28;20491;-79
2022/10/17 06:39:39;;;;;;;14.83;5.20;;;;;;;7.80;100.00;97044.69;5013175;28;20835;-79
2022/10/17 06:42:10;;;;;;;8.63;6.37;;;;;;;7.98;100.00;97067.53;5018469;28;20447;-79
2022/10/17 06:44:54;;;;;;;9.87;6.00;;;;;;;8.17;100.00;97086.69;5025180;28;20447;-79
2022/10/17 06:47:20;;;;;;;9.60;5.30;;;;;;;8.36;100.00;97118.22;5023834;28;20498;-79
2022/10/17 06:49:48;;;;;;;7.73;5.27;;;;;;;7.61;100.00;97005.25;5022228;28;20472;-79
2022/10/17 06:52:30;;;;;;;12.03;6.47;;;;;;;8.31;100.00;97086.69;5022366;28;20447;-79
2022/10/17 06:55:16;;;;;;;6.20;5.50;;;;;;;8.56;100.00;97119.72;5031030;28;20469;-79
2022/10/17 06:58:11;;;;;;;8.00;5.03;;;;;;;8.39;100.00;97085.25;5014617;28;20431;-79
2022/10/17 07:01:03;;;;;;;7.60;5.87;;;;;;;8.82;100.00;97146.38;5023132;28;20431;-79
2022/10/17 07:03:31;;;;;;;11.10;5.60;;;;;;;8.65;100.00;97119.78;5023157;28;20438;-79
2022/10/17 07:05:59;;;;;;;6.27;5.70;;;;;;;8.59;100.00;97117.28;5021088;28;21026;-79
2022/10/17 07:08:26;;;;;;;12.30;6.43;;;;;;;8.93;100.00;97147.69;5021707;28;20443;-79
2022/10/17 07:10:53;;;;;;;16.73;6.90;;;;;;;9.06;100.00;97161.94;5022915;28;20549;-79
2022/10/17 07:13:20;;;;;;;8.70;7.37;;;;;;;8.87;100.00;97125.16;5022366;28;20971;-79
2022/10/17 07:15:47;;;;;;;9.00;6.97;;;;;;;8.97;100.00;97132.09;5006645;28;20490;-79
2022/10/17 07:18:15;;;;;;;7.80;6.40;;;;;;;8.66;100.00;97061.50;5009518;28;20431;-79
2022/10/17 07:20:42;;;;;;;8.77;7.03;;;;;;;9.25;100.00;97130.97;5023796;28;20466;-79
2022/10/17 07:23:09;;;;;;;9.53;6.67;;;;;;;9.16;100.00;97098.44;5026717;28;20440;-79
2022/10/17 07:25:36;;;;;;;7.97;6.83;;;;;;;9.39;100.00;97123.00;5006292;28;20435;-79
2022/10/17 07:28:07;;;;;;;10.20;9.17;;;;;;;9.65;100.00;97144.31;5006776;28;20458;-79
2022/10/17 07:30:34;;;;;;;8.57;7.73;;;;;;;9.60;100.00;97123.31;5006466;28;20490;-79
2022/10/17 07:33:06;;;;;;;8.27;7.47;;;;;;;9.67;100.00;97110.47;5023967;28;20435;-79
2022/10/17 07:35:33;;;;;;;9.23;7.23;;;;;;;10.11;100.00;97170.41;5022840;28;20439;-79
2022/10/17 07:38:00;;;;;;;7.53;6.50;;;;;;;9.98;100.00;97126.34;5020088;28;20793;-79
2022/10/17 07:40:27;;;;;;;7.73;6.93;;;;;;;10.31;100.00;97166.53;5006954;28;20460;-80
2022/10/17 07:42:55;;;;;;;9.83;6.30;;;;;;;10.14;100.00;97124.88;5023519;28;20447;-80
2022/10/17 07:45:23;;;;;;;7.10;6.40;;;;;;;10.29;100.00;97140.41;5015781;28;20443;-79
2022/10/17 07:47:57;;;;;;;6.03;5.43;;;;;;;10.62;100.00;97177.09;5028520;28;20451;-79
2022/10/17 07:50:24;;;;;;;6.87;5.57;;;;;;;10.49;100.00;97151.53;5003380;28;20464;-79
2022/10/17 07:52:51;;;;;;;8.63;5.67;;;;;;;10.70;100.00;97167.63;5022738;28;20810;-81
2022/10/17 07:55:17;;;;;;;7.40;5.50;;;;;;;10.50;100.00;97127.41;5006819;28;20534;-80
2022/10/17 07:57:44;;;;;;;5.00;4.53;;;;;;;10.86;100.00;97158.97;5016696;28;20479;-79
2022/10/17 08:00:11;;;;;;;5.33;4.13;;;;;;;10.98;100.00;97134.56;5016502;28;20482;-79
2022/10/17 08:02:38;;;;;;;5.40;3.70;;;;;;;11.29;100.00;97168.88;5025262;28;20435;-80
2022/10/17 08:05:05;;;;;;;6.33;5.80;;;;;;;11.16;100.00;97132.72;5022362;28;20542;-80
2022/10/17 08:07:32;;;;;;;8.80;6.13;;;;;;;11.19;100.00;97121.50;5022535;28;20415;-79
2022/10/17 08:09:58;;;;;;;4.50;4.10;;;;;;;11.53;100.00;97160.50;5022297;28;20553;-80
2022/10/17 08:12:25;;;;;;;3.60;3.30;;;;;;;11.29;100.00;97084.16;5011380;28;20435;-80
2022/10/17 08:14:52;;;;;;;4.40;3.80;;;;;;;11.77;100.00;97123.72;5039932;28;20463;-80
2022/10/17 08:17:19;;;;;;;3.80;3.50;;;;;;;12.26;100.00;97179.91;5023762;28;20466;-80
2022/10/17 08:19:45;;;;;;;9.00;3.50;;;;;;;12.20;100.00;97177.75;5023268;28;21085;-80
2022/10/17 08:22:12;;;;;;;5.97;3.30;;;;;;;11.91;100.00;97130.72;5023777;28;20431;-79
2022/10/17 08:24:38;;;;;;;7.67;3.97;;;;;;;12.19;100.00;97178.88;5024425;28;20435;-80
2022/10/17 08:27:10;;;;;;;10.00;5.63;;;;;;;11.98;100.00;97115.91;5024638;28;20518;-80
2022/10/17 08:29:38;;;;;;;12.53;7.53;;;;;;;12.27;100.00;97159.50;5008484;28;20478;-80
2022/10/17 08:32:06;;;;;;;3.90;3.47;;;;;;;12.43;100.00;97166.63;5024177;28;20553;-80
2022/10/17 08:34:35;;;;;;;2.63;2.43;;;;;;;13.00;100.00;97202.63;5011572;28;20437;-79
2022/10/17 08:37:02;;;;;;;4.60;3.33;;;;;;;12.85;100.00;97153.50;5034260;28;20501;-80
2022/10/17 08:39:28;;;;;;;3.70;2.90;;;;;;;12.96;100.00;97152.06;5023654;28;20475;-80
2022/10/17 08:42:04;;;;;;;6.70;4.70;;;;;;;13.38;100.00;97201.81;5023305;28;20458;-80
2022/10/17 08:45:17;;;;;;;3.87;3.00;;;;;;;13.44;100.00;97198.66;5025059;28;20431;-80
2022/10/17 08:47:47;;;;;;;2.63;2.40;;;;;;;13.45;100.00;97181.59;5022388;28;20518;-80
2022/10/17 08:50:28;;;;;;;4.37;3.30;;;;;;;13.51;100.00;97172.34;5024224;28;20473;-80
2022/10/17 08:53:01;;;;;;;5.13;2.80;;;;;;;13.86;100.00;97199.44;5028591;28;20437;-80
2022/10/17 08:55:33;;;;;;;4.77;3.00;;;;;;;14.04;100.00;97223.22;5024556;28;20431;-80
2022/10/17 08:58:00;;;;;;;12.27;3.10;;;;;;;14.00;100.00;97224.97;5024699;28;20466;-80
2022/10/17 09:00:30;;;;;;;3.43;2.87;;;;;;;13.55;100.00;97152.00;5025428;28;20483;-80
2022/10/17 09:02:56;;;;;;;5.43;3.50;;;;;;;14.10;100.00;97217.38;5025046;28;20450;-80
2022/10/17 09:05:41;;;;;;;3.90;3.53;;;;;;;13.96;100.00;97184.97;5025467;28;20432;-80
2022/10/17 09:08:13;;;;;;;5.50;3.20;;;;;;;14.32;100.00;97199.50;5041513;28;20437;-80
2022/10/17 09:10:56;;;;;;;3.97;3.57;;;;;;;14.34;100.00;97173.34;5012371;28;20459;-80
2022/10/17 09:13:35;;;;;;;5.00;3.30;;;;;;;14.76;100.00;97205.94;5008434;28;20462;-80
2022/10/17 09:16:10;;;;;;;3.00;2.40;;;;;;;14.89;100.00;97209.38;5020914;28;20483;-80
2022/10/17 09:18:56;;;;;;;3.43;3.13;;;;;;;14.87;100.00;97184.97;5039455;28;20419;-79
2022/10/17 09:21:35;;;;;;;6.50;3.73;;;;;;;14.75;100.00;97167.88;5026281;28;20428;-80
2022/10/17 09:24:06;;;;;;;4.53;3.50;;;;;;;15.24;100.00;97207.84;5010329;28;20446;-80
2022/10/17 09:26:44;;;;;;;3.20;2.90;;;;;;;15.03;100.00;97207.16;5028554;28;20534;-80
2022/10/17 09:29:34;;;;;;;4.03;3.63;;;;;;;15.14;100.00;97207.50;5034679;28;20473;-80
2022/10/17 09:32:17;;;;;;;6.93;4.00;;;;;;;15.26;100.00;97208.28;5027431;28;20475;-79
2022/10/17 09:34:43;;;;;;;5.20;4.27;;;;;;;15.09;100.00;97189.88;5013798;28;20838;-79
2022/10/17 09:37:14;;;;;;;3.63;3.33;;;;;;;15.20;100.00;97182.19;5004844;28;20455;-80
2022/10/17 09:39:42;;;;;;;5.13;3.67;;;;;;;15.34;100.00;97188.72;4989580;28;20988;-80
2022/10/17 09:42:13;;;;;;;7.43;3.50;;;;;;;15.13;100.00;97173.97;5018387;28;20815;-80
2022/10/17 09:45:03;;;;;;;4.30;3.60;;;;;;;15.45;100.00;97206.91;5018952;28;20998;-80
2022/10/17 09:47:42;;;;;;;3.70;3.40;;;;;;;15.51;100.00;97205.59;5017415;28;20518;-80
2022/10/17 09:50:21;;;;;;;4.30;3.90;;;;;;;15.19;100.00;97160.09;5017996;28;20845;-79
2022/10/17 09:52:49;;;;;;;4.40;4.00;;;;;;;15.31;100.00;97167.28;5016885;28;20445;-80
2022/10/17 09:55:19;;;;;;;5.67;4.13;;;;;;;15.81;100.00;97209.53;5024160;28;20555;-80
2022/10/17 09:57:55;;;;;;;3.80;3.37;;;;;;;15.81;100.00;97204.19;5004088;28;20473;-80
2022/10/17 10:00:28;;;;;;;6.93;3.30;;;;;;;15.74;100.00;97189.88;5003629;28;20542;-80
2022/10/17 10:03:21;;;;;;;6.40;3.90;;;;;;;16.02;100.00;97205.91;5016199;28;20427;-80
2022/10/17 10:06:10;;;;;;;4.07;3.60;;;;;;;16.18;100.00;97204.06;5002796;28;20431;-80
2022/10/17 10:08:50;;;;;;;5.07;3.60;;;;;;;16.33;100.00;97214.00;5002654;28;20436;-80
2022/10/17 10:11:18;;;;;;;5.87;3.70;;;;;;;16.31;100.00;97212.81;4988116;28;20436;-80
2022/10/17 10:13:48;;;;;;;4.70;4.00;;;;;;;16.28;100.00;97192.88;5016155;28;20423;-80
2022/10/17 10:16:15;;;;;;;6.07;2.97;;;;;;;16.44;100.00;97211.63;4997633;28;20510;-80
2022/10/17 10:18:42;;;;;;;3.83;3.53;;;;;;;16.18;100.00;97174.72;5030118;28;20462;-80
2022/10/17 10:21:16;;;;;;;5.70;3.13;;;;;;;16.34;100.00;97204.88;5020347;28;20447;-80
2022/10/17 10:23:44;;;;;;;3.43;3.13;;;;;;;16.72;100.00;97208.91;5022274;28;20450;-80
2022/10/17 10:26:21;;;;;;;8.03;3.20;;;;;;;16.66;100.00;97195.00;5004801;28;20535;-80
2022/10/17 10:29:03;;;;;;;6.23;3.10;;;;;;;17.11;100.00;97204.50;5019652;28;20445;-80
2022/10/17 10:31:34;;;;;;;3.97;3.60;;;;;;;17.19;100.00;97216.91;5019686;28;20450;-80
2022/10/17 10:34:24;;;;;;;3.57;2.60;;;;;;;17.18;100.00;97191.31;5019391;28;20795;-80
2022/10/17 10:36:50;;;;;;;3.80;3.40;;;;;;;17.49;100.00;97206.50;5007573;28;20553;-80
2022/10/17 10:39:44;;;;;;;4.90;3.40;;;;;;;17.65;100.00;97209.91;5018669;28;20477;-80
2022/10/17 10:42:38;;;;;;;6.03;3.53;;;;;;;17.63;100.00;97206.81;5018839;28;20427;-80
2022/10/17 10:45:15;;;;;;;3.83;3.20;;;;;;;17.62;100.00;97215.16;5008041;28;20925;-80
2022/10/17 10:48:19;;;;;;;3.23;2.93;;;;;;;17.04;100.00;97090.22;5021951;28;20431;-80
2022/10/17 10:50:54;;;;;;;2.90;2.60;;;;;;;17.82;100.00;97157.94;5018317;28;20481;-80
2022/10/17 10:53:45;;;;;;;3.10;2.90;;;;;;;17.99;100.00;97207.56;5017997;28;20423;-80
2022/10/17 10:56:20;;;;;;;6.13;3.43;;;;;;;17.92;100.00;97204.75;5005601;28;20427;-80
2022/10/17 10:58:46;;;;;;;5.50;3.30;;;;;;;17.82;100.00;97199.97;5016957;28;20819;-80
2022/10/17 11:01:36;;;;;;;2.50;2.30;;;;;;;17.98;100.00;97182.69;5021950;28;20451;-80
2022/10/17 11:04:11;;;;;;;5.00;3.60;;;;;;;18.33;100.00;97197.13;5024150;28;20441;-80
2022/10/17 11:06:42;;;;;;;2.27;2.07;;;;;;;18.65;100.00;97184.31;5025534;28;20533;-80
2022/10/17 11:09:43;;;;;;;4.50;3.43;;;;;;;18.77;100.00;97194.84;5018956;28;20536;-80
2022/10/17 11:12:24;;;;;;;3.10;2.80;;;;;;;18.55;100.00;97193.66;5019063;28;20434;-81
2022/10/17 11:15:02;;;;;;;5.00;2.53;;;;;;;18.59;100.00;97192.63;5020464;28;20423;-80
2022/10/17 11:17:44;;;;;;;3.43;3.13;;;;;;;18.57;100.00;97186.06;5018179;28;20554;-80
2022/10/17 11:20:19;;;;;;;3.47;2.80;;;;;;;18.47;100.00;97195.47;5004879;28;20461;-80
2022/10/17 11:22:51;;;;;;;3.83;2.80;;;;;;;18.53;100.00;97187.91;5023146;28;20434;-80
2022/10/17 11:25:39;;;;;;;4.83;2.70;;;;;;;18.39;100.00;97164.31;5016908;28;20429;-80
2022/10/17 11:28:15;;;;;;;2.77;2.57;;;;;;;18.86;100.00;97179.31;5020189;28;20534;-81
2022/10/17 11:30:51;;;;;;;3.80;2.47;;;;;;;18.95;100.00;97187.84;5020271;28;20466;-80
2022/10/17 11:33:40;;;;;;;2.93;2.50;;;;;;;18.56;100.00;97123.69;5020124;28;20470;-80
2022/10/17 11:36:09;;;;;;;5.10;2.67;;;;;;;18.77;100.00;97160.00;5016973;28;20840;-80
2022/10/17 11:38:41;;;;;;;4.03;2.77;;;;;;;19.01;100.00;97180.31;5006369;28;20489;-80
2022/10/17 11:41:14;;;;;;;3.53;2.60;;;;;;;19.13;100.00;97185.47;5011446;28;20459;-80
2022/10/17 11:44:10;;;;;;;2.63;2.40;;;;;;;19.17;100.00;97168.28;5025091;28;20546;-81
2022/10/17 11:46:40;;;;;;;2.40;2.20;;;;;;;19.35;100.00;97162.38;5027924;28;20491;-81
2022/10/17 11:49:19;;;;;;;2.87;2.67;;;;;;;19.78;100.00;97164.53;5023970;28;20459;-80
2022/10/17 11:52:18;;;;;;;4.50;2.80;;;;;;;19.89;100.00;97174.59;5007992;28;20431;-81
2022/10/17 11:55:15;;;;;;;3.10;2.43;;;;;;;20.20;100.00;97160.00;5017341;28;20453;-80